Time;durP1;ratioP1;P1;durP2;ratioP2;P2;SDS_P1;SDS_P2;PMS_P1;PMS_P2;Temp;Humidity;BMP_temperature;BMP_pressure;BME280_temperature;BME280_humidity;BME280_pressure;Samples;Min_cycle;Max_cycle;Signal;HPM_P1;HPM_P2
2023/12/18 18:02:33;;;;;;;;;0.00;0.00;;;;;14.63;51.89;103240.91;2037285;27;1992087;-78
2023/12/18 18:03:45;;;;;;;;;0.00;0.00;;;;;14.89;51.14;103235.38;2075085;27;2692448;-78
2023/12/18 18:04:56;;;;;;;;;0.00;0.00;;;;;15.17;51.00;103238.56;2055438;27;2692457;-77
2023/12/18 18:06:07;;;;;;;;;0.00;0.00;;;;;15.45;50.53;103240.00;2057123;27;2692278;-77
2023/12/18 18:07:19;;;;;;;;;0.00;0.00;;;;;15.73;50.25;103236.06;2058687;27;2692323;-78
2023/12/18 18:08:30;;;;;;;;;0.00;0.00;;;;;15.98;49.78;103228.59;2049062;27;2691953;-78
2023/12/18 18:09:41;;;;;;;;;0.00;0.00;;;;;16.22;49.59;103219.41;2080879;27;2691946;-78
2023/12/18 18:10:52;;;;;;;;;0.00;0.00;;;;;16.44;49.35;103224.34;2057355;27;2691895;-79
2023/12/18 18:12:05;;;;;;;;;59.50;50.25;;;;;16.65;48.60;103229.25;2025232;27;4355429;-79
2023/12/18 18:13:17;;;;;;;;;61.25;51.00;;;;;16.84;48.62;103223.56;2035240;27;4355400;-80
2023/12/18 18:14:30;;;;;;;;;60.50;50.75;;;;;17.03;48.47;103228.53;2056694;27;4355444;-80
2023/12/18 18:15:43;;;;;;;;;120.83;111.33;;;;;17.22;47.75;103225.50;2031964;27;3644997;-79
2023/12/18 18:16:57;;;;;;;;;63.14;52.14;;;;;17.37;48.00;103223.41;2041747;27;3603414;-79
2023/12/18 18:18:09;;;;;;;;;62.33;51.67;;;;;17.52;47.70;103223.09;2024438;27;3602687;-79
2023/12/18 18:19:21;;;;;;;;;63.33;52.67;;;;;17.66;47.20;103221.88;2056349;27;1923226;-79
2023/12/18 18:20:36;;;;;;;;;106.56;96.78;;;;;17.80;47.07;103218.03;2025834;27;4353333;-78
2023/12/18 18:21:47;;;;;;;;;151.00;143.50;;;;;17.93;46.91;103215.91;1992871;27;3648168;-79
2023/12/18 18:22:58;;;;;;;;;69.20;58.20;;;;;18.04;46.62;103220.97;2048287;27;2559699;-79
2023/12/18 18:24:13;;;;;;;;;73.50;64.38;;;;;18.16;46.68;103217.13;2015919;27;4365841;-79
2023/12/18 18:25:26;;;;;;;;;128.33;120.17;;;;;18.26;46.17;103212.47;2007295;27;3649163;-79
2023/12/18 18:26:41;;;;;;;;;109.00;100.67;;;;;18.36;45.89;103213.09;2024720;27;3633566;-79
2023/12/18 18:27:55;;;;;;;;;112.38;102.88;;;;;18.44;45.58;103213.78;1998903;27;3631469;-80
2023/12/18 18:29:07;;;;;;;;;137.80;128.40;;;;;18.53;45.87;103212.66;1998386;27;3647065;-79
2023/12/18 18:30:22;;;;;;;;;67.00;56.13;;;;;18.61;45.63;103201.78;2023577;27;4337780;-79
2023/12/18 18:31:34;;;;;;;;;124.50;115.00;;;;;18.67;45.19;103191.81;2029252;27;3647124;-79
2023/12/18 18:32:52;;;;;;;;;105.89;96.00;;;;;18.75;45.16;103190.72;2020195;27;4346081;-79
2023/12/18 18:34:07;;;;;;;;;105.78;96.00;;;;;18.82;45.24;103191.41;2028765;27;4333530;-79
2023/12/18 18:35:18;;;;;;;;;133.00;124.80;;;;;18.86;44.83;103188.66;2006683;27;3637276;-79
2023/12/18 18:36:33;;;;;;;;;105.78;96.11;;;;;18.92;44.88;103192.91;1998241;27;4351313;-78
2023/12/18 18:37:47;;;;;;;;;115.00;104.71;;;;;18.97;44.35;103190.09;2030355;27;3650220;-78
2023/12/18 18:39:02;;;;;;;;;65.75;55.00;;;;;19.01;44.62;103186.44;2014805;27;4341920;-79
2023/12/18 18:40:13;;;;;;;;;149.25;141.50;;;;;19.06;44.30;103187.16;1979337;28;3653402;-79
2023/12/18 18:41:28;;;;;;;;;106.44;97.56;;;;;19.10;44.23;103186.16;2023121;27;4348145;-80
2023/12/18 18:42:40;;;;;;;;;135.40;126.60;;;;;19.14;44.28;103189.59;2013674;27;2559667;-79
2023/12/18 18:43:55;;;;;;;;;108.00;99.78;;;;;19.18;44.19;103196.63;2003643;27;3644002;-79
2023/12/18 18:45:10;;;;;;;;;108.11;100.33;;;;;19.22;44.06;103184.06;1998485;27;3655441;-79
2023/12/18 18:46:24;;;;;;;;;139.00;129.80;;;;;19.25;44.11;103183.97;2001724;27;3648149;-80
2023/12/18 18:47:39;;;;;;;;;108.33;100.78;;;;;19.28;43.57;103172.34;2035565;27;4364827;-79
2023/12/18 18:48:50;;;;;;;;;154.25;145.50;;;;;19.30;43.87;103175.81;1994719;27;3653452;-79
2023/12/18 18:50:03;;;;;;;;;121.57;112.57;;;;;19.33;43.53;103187.25;1998891;27;3653314;-79
2023/12/18 18:51:18;;;;;;;;;111.11;103.11;;;;;19.36;43.42;103180.09;2002349;27;4366931;-79
2023/12/18 18:52:31;;;;;;;;;128.33;119.83;;;;;19.38;43.17;103178.25;2030251;27;3651247;-79
2023/12/18 18:53:46;;;;;;;;;111.22;102.78;;;;;19.39;42.81;103175.53;2002403;27;4356500;-79
2023/12/18 18:54:58;;;;;;;;;127.33;118.33;;;;;19.38;42.66;103173.81;2004020;27;3654379;-79
2023/12/18 18:56:13;;;;;;;;;112.56;103.00;;;;;19.38;42.63;103179.13;2001446;27;4370048;-77
2023/12/18 18:57:26;;;;;;;;;131.50;121.33;;;;;19.38;42.65;103171.13;2005701;27;3658940;-77
2023/12/18 18:58:41;;;;;;;;;107.67;98.33;;;;;19.39;42.94;103169.31;2001142;27;4348157;-77
2023/12/18 18:59:51;;;;;;;;;155.75;147.00;;;;;19.39;42.54;103170.19;1994162;27;3654567;-78
2023/12/18 19:01:02;;;;;;;;;157.00;148.50;;;;;19.39;42.49;103162.19;2006931;27;3645058;-78
2023/12/18 19:02:15;;;;;;;;;127.00;116.83;;;;;19.41;42.65;103162.16;2025583;27;3664784;-77
2023/12/18 19:03:30;;;;;;;;;107.67;98.00;;;;;19.41;42.72;103165.69;2024454;27;4354388;-79
2023/12/18 19:04:42;;;;;;;;;127.17;116.17;;;;;19.43;42.80;103161.16;1999003;27;3660668;-79
2023/12/18 19:05:57;;;;;;;;;108.22;98.56;;;;;19.47;43.32;103156.63;2020186;27;4364772;-79
2023/12/18 19:07:10;;;;;;;;;66.00;54.33;;;;;19.48;42.76;103155.72;2018617;27;3611695;-76
2023/12/18 19:08:23;;;;;;;;;135.60;126.80;;;;;19.51;43.02;103155.59;2024541;27;3637744;-78
2023/12/18 19:09:37;;;;;;;;;66.44;54.89;;;;;19.54;42.57;103149.28;1998057;27;4357547;-77
2023/12/18 19:10:49;;;;;;;;;66.40;53.80;;;;;19.56;42.44;103150.09;1998300;27;3650229;-77
2023/12/18 19:12:04;;;;;;;;;104.67;94.00;;;;;19.59;42.49;103159.78;2002598;27;4344376;-78
2023/12/18 19:13:15;;;;;;;;;151.50;144.00;;;;;19.60;42.45;103153.56;1980848;27;3655413;-77
2023/12/18 19:14:26;;;;;;;;;149.25;141.00;;;;;19.63;42.48;103150.78;2004198;28;3651349;-78
2023/12/18 19:15:36;;;;;;;;;150.50;142.25;;;;;19.63;42.57;103143.63;2015595;27;3629368;-77
2023/12/18 19:16:47;;;;;;;;;150.75;142.75;;;;;19.64;42.58;103145.38;2007469;27;3656514;-78
2023/12/18 19:17:58;;;;;;;;;151.00;142.25;;;;;19.65;42.31;103140.94;2006476;27;3651231;-76
2023/12/18 19:19:11;;;;;;;;;124.83;114.33;;;;;19.66;42.54;103126.66;2021234;27;3649151;-69
2023/12/18 19:21:34;;;;;;;;;65.67;53.67;;;;;19.59;43.08;103090.44;1973910;27;2868084;-64
2023/12/18 19:22:46;;;;;;;;;149.00;140.00;;;;;19.59;43.28;103096.66;2001923;28;3642011;-64
2023/12/18 19:24:00;;;;;;;;;62.43;51.14;;;;;19.56;43.45;103094.09;1999966;28;3605911;-65
2023/12/18 19:25:12;;;;;;;;;133.20;124.60;;;;;19.53;43.25;103091.53;1989698;28;3651247;-65
2023/12/18 19:26:27;;;;;;;;;65.11;53.22;;;;;19.49;43.52;103098.75;1984626;28;4355417;-64
2023/12/18 19:27:39;;;;;;;;;132.20;123.40;;;;;19.47;43.89;103105.94;1987770;28;3640862;-64
2023/12/18 19:28:54;;;;;;;;;104.44;93.78;;;;;19.42;44.02;103094.56;1982238;28;4359686;-62
2023/12/18 19:32:22;;;;;;;;;68.25;56.00;;;;;18.89;41.67;103161.88;1957722;28;3621047;-73
2023/12/18 19:36:20;;;;;;;;;81.75;76.50;;;;;16.58;40.19;103155.94;1961062;27;3641898;-73
2023/12/18 19:37:31;;;;;;;;;210.60;203.00;;;;;15.74;40.32;103159.16;1991637;27;3661749;-72
2023/12/18 19:38:46;;;;;;;;;172.25;164.50;;;;;14.90;40.83;103158.56;2005069;27;4430440;-73
2023/12/18 19:40:01;;;;;;;;;497.22;491.33;;;;;14.05;41.63;103158.56;2026254;27;4431498;-73
2023/12/18 19:41:20;;;;;;;;;297.00;289.00;;;;;13.30;42.27;103164.34;2000891;27;3656435;-72
2023/12/18 19:42:31;;;;;;;;;210.60;202.80;;;;;12.66;42.96;103158.44;1969790;28;3647164;-72
2023/12/18 19:43:47;;;;;;;;;618.30;613.20;;;;;12.07;43.81;103167.31;2018536;28;5178385;-78
2023/12/18 19:45:01;;;;;;;;;411.71;403.14;;;;;11.53;44.08;103176.88;2026743;28;2581563;-79
2023/12/18 19:46:12;;;;;;;;;830.60;825.40;;;;;11.02;45.00;103173.22;1971097;27;4435653;-79
2023/12/18 19:47:23;;;;;;;;;1810.00;1807.00;;;;;10.54;45.56;103176.47;1994949;27;3750208;-78
2023/12/18 19:50:57;;;;;;;;;58.50;49.17;;;;;11.06;54.29;103167.97;1994705;27;4342862;-69
2023/12/18 19:52:08;;;;;;;;;55.33;47.33;;;;;11.48;54.56;103160.22;2003571;27;3595019;-69
2023/12/18 19:53:20;;;;;;;;;62.50;51.50;;;;;11.96;54.04;103158.50;2042616;27;2862784;-70
2023/12/18 19:54:31;;;;;;;;;62.33;51.67;;;;;12.44;53.68;103160.25;1995569;27;3599348;-70
2023/12/18 19:55:41;;;;;;;;;63.33;51.67;;;;;12.91;53.42;103158.34;1997190;27;3603423;-70
2023/12/18 19:56:53;;;;;;;;;58.33;49.67;;;;;13.38;53.03;103150.19;2015389;28;3593997;-69
2023/12/18 19:58:05;;;;;;;;;59.33;51.00;;;;;13.82;52.56;103151.69;2014090;27;3586725;-69
2023/12/18 19:59:18;;;;;;;;;57.86;48.57;;;;;14.26;52.00;103156.59;2019853;27;3587765;-69
2023/12/18 20:00:30;;;;;;;;;48.00;42.33;;;;;14.65;51.48;103150.88;2017269;27;3595495;-71
2023/12/18 20:01:42;;;;;;;;;52.00;44.67;;;;;15.03;51.09;103154.00;2015237;27;3601371;-69
2023/12/18 20:02:54;;;;;;;;;52.00;44.80;;;;;15.37;50.72;103144.69;2017991;27;3587747;-68
2023/12/18 20:04:05;;;;;;;;;51.00;42.00;;;;;15.70;50.45;103145.97;1993378;28;3595042;-68
2023/12/18 20:05:17;;;;;;;;;51.00;43.00;;;;;16.00;49.93;103149.00;2015945;27;3592385;-68
2023/12/18 20:06:29;;;;;;;;;48.00;42.00;;;;;16.27;49.54;103143.28;2019622;27;3594040;-68
2023/12/18 20:07:41;;;;;;;;;49.33;43.00;;;;;16.53;49.19;103133.91;2016219;27;3596064;-68
2023/12/18 20:08:52;;;;;;;;;53.00;45.33;;;;;16.79;49.14;103132.50;2020100;28;3604446;-69
2023/12/18 20:10:05;;;;;;;;;59.67;49.33;;;;;17.02;48.48;103136.44;2017585;27;3613184;-68
2023/12/18 20:11:19;;;;;;;;;57.33;48.00;;;;;17.24;48.45;103132.44;1995778;27;3608551;-70
2023/12/18 20:12:31;;;;;;;;;57.33;48.33;;;;;17.43;48.18;103128.44;2012745;28;3598127;-71
2023/12/18 20:13:48;;;;;;;;;53.33;45.11;;;;;17.64;47.80;103128.84;2031021;27;4340842;-69
2023/12/18 20:15:00;;;;;;;;;55.33;47.00;;;;;17.82;47.64;103121.31;2019588;27;3598096;-69
2023/12/18 20:16:13;;;;;;;;;55.00;46.75;;;;;17.99;47.48;103134.19;2042592;27;4351243;-71
2023/12/18 20:17:25;;;;;;;;;58.00;48.00;;;;;18.15;46.70;103139.06;2022741;27;3603369;-71
2023/12/18 20:18:38;;;;;;;;;74.50;66.33;;;;;18.32;46.63;103135.13;2011816;28;2517983;-70
2023/12/18 20:19:51;;;;;;;;;82.67;77.67;;;;;18.44;46.89;103137.44;2028921;27;1932722;-73
2023/12/18 20:21:06;;;;;;;;;116.44;112.67;;;;;18.59;46.23;103142.38;2027817;27;4389104;-69
2023/12/18 20:22:19;;;;;;;;;71.25;60.75;;;;;18.72;46.03;103142.84;2012039;27;4357481;-70
2023/12/18 20:23:30;;;;;;;;;66.80;55.40;;;;;18.83;45.88;103148.75;2018853;27;3615914;-70
2023/12/18 20:24:42;;;;;;;;;65.00;54.00;;;;;18.94;45.91;103134.25;2014773;27;4365909;-69
2023/12/18 20:25:57;;;;;;;;;60.88;50.88;;;;;19.05;45.94;103134.78;2032533;27;4339761;-69
2023/12/18 20:27:09;;;;;;;;;132.20;122.60;;;;;19.15;45.71;103138.03;2023017;27;3649132;-69
2023/12/18 20:28:20;;;;;;;;;59.67;50.00;;;;;19.25;45.56;103130.66;1999308;28;1927424;-69
2023/12/18 20:29:35;;;;;;;;;60.88;51.00;;;;;19.35;45.46;103152.56;2034689;28;4346043;-69
2023/12/18 20:30:46;;;;;;;;;129.80;122.40;;;;;19.44;45.41;103143.38;1997233;28;3638763;-69
2023/12/18 20:31:58;;;;;;;;;60.25;50.75;;;;;19.52;45.25;103136.00;1999934;27;4360589;-69
2023/12/18 20:33:10;;;;;;;;;62.00;51.67;;;;;19.61;45.29;103126.81;2035971;27;1912770;-69
2023/12/18 20:34:25;;;;;;;;;103.33;92.56;;;;;19.69;44.92;103123.88;2015508;27;4351262;-69
2023/12/18 20:35:38;;;;;;;;;119.50;110.67;;;;;19.76;44.75;103121.88;1995924;27;3629385;-69
2023/12/18 20:36:53;;;;;;;;;104.78;94.00;;;;;19.84;47.22;103121.63;2017850;28;4345020;-77
2023/12/18 20:39:02;;;;;;;;;74.00;65.33;;;;;20.31;45.04;103123.56;1987169;27;3614809;-68
2023/12/18 20:40:12;;;;;;;;;64.50;51.00;;;;;20.54;44.38;103112.94;2005585;27;3641864;-68
2023/12/18 20:41:23;;;;;;;;;2634.50;2634.00;;;;;20.54;43.66;103115.63;2013269;27;4524124;-69
2023/12/18 20:43:47;;;;;;;;;68.33;56.33;;;;;20.56;43.38;103111.97;1993868;27;2869001;-72
2023/12/18 20:44:59;;;;;;;;;47.33;40.00;;;;;20.62;42.86;103113.50;2018880;27;3593358;-73
2023/12/18 20:46:11;;;;;;;;;44.20;39.00;;;;;20.77;42.59;103101.34;2049079;27;3577851;-73
2023/12/18 20:47:22;;;;;;;;;53.33;45.33;;;;;21.01;42.42;103100.50;2041435;27;3602379;-72
2023/12/18 20:48:34;;;;;;;;;47.60;41.60;;;;;21.15;41.82;103089.22;2001577;28;2847116;-72
2023/12/18 20:49:46;;;;;;;;;52.67;44.33;;;;;21.27;41.67;103100.34;2025410;27;3589833;-72
2023/12/18 20:50:58;;;;;;;;;54.33;46.00;;;;;21.33;41.29;103094.75;2000122;27;3603351;-72
2023/12/18 20:52:09;;;;;;;;;53.67;45.33;;;;;21.38;41.41;103089.22;2002352;28;3599252;-72
2023/12/18 20:53:22;;;;;;;;;46.86;40.29;;;;;21.41;41.37;103091.75;2015148;28;3592955;-72
2023/12/18 20:54:34;;;;;;;;;44.40;38.20;;;;;21.44;41.20;103099.63;2019951;27;3588171;-72
2023/12/18 20:55:47;;;;;;;;;37.57;34.14;;;;;21.46;41.05;103087.94;2039700;28;3587766;-72
2023/12/18 20:56:59;;;;;;;;;46.33;39.00;;;;;21.47;41.14;103083.47;1993784;27;3589854;-72
2023/12/18 20:58:11;;;;;;;;;38.20;35.00;;;;;21.50;41.23;103088.69;2040514;27;3579351;-71
2023/12/18 20:59:23;;;;;;;;;38.67;35.33;;;;;21.50;41.03;103080.66;2035023;27;3582539;-68
2023/12/18 21:00:35;;;;;;;;;41.67;36.67;;;;;21.51;41.41;103087.75;2036638;27;3581493;-68
2023/12/18 21:01:47;;;;;;;;;38.67;34.67;;;;;21.53;41.01;103087.69;2040644;27;3577343;-68
2023/12/18 21:02:59;;;;;;;;;32.20;29.00;;;;;21.53;40.73;103082.34;2042277;28;3592891;-68
2023/12/18 21:04:11;;;;;;;;;35.60;31.60;;;;;21.53;41.22;103088.53;2039220;27;3591858;-68
2023/12/18 21:05:23;;;;;;;;;34.57;32.43;;;;;21.54;40.50;103084.06;2039672;27;3595094;-69
2023/12/18 21:06:35;;;;;;;;;31.80;29.20;;;;;21.55;40.68;103081.34;2017651;28;3605438;-69
2023/12/18 21:07:47;;;;;;;;;31.00;30.00;;;;;21.55;40.80;103076.00;2011952;27;3593977;-69
2023/12/18 21:08:59;;;;;;;;;23.40;23.40;;;;;21.55;40.30;103070.63;2016836;27;3585724;-70
2023/12/18 21:10:12;;;;;;;;;31.14;29.86;;;;;21.55;40.47;103059.94;2012089;27;3600282;-69
2023/12/18 21:11:24;;;;;;;;;23.00;21.40;;;;;21.55;40.48;103062.63;2019805;27;3586718;-68
2023/12/18 21:12:36;;;;;;;;;24.20;24.00;;;;;21.57;40.66;103058.06;2043278;27;3599678;-69
2023/12/18 21:13:48;;;;;;;;;21.33;21.00;;;;;21.58;40.83;103062.47;2012137;27;3583561;-69
2023/12/18 21:15:00;;;;;;;;;21.40;21.40;;;;;21.58;40.49;103070.47;2043206;28;3593935;-67
2023/12/18 21:16:14;;;;;;;;;21.60;21.60;;;;;21.58;40.69;103070.47;2015616;27;3589779;-68
2023/12/18 21:17:25;;;;;;;;;22.67;22.00;;;;;21.59;40.61;103066.88;2016200;28;3589782;-69
2023/12/18 21:18:40;;;;;;;;;20.00;20.00;;;;;21.59;40.43;103061.53;2036825;27;3599284;-67
2023/12/18 21:19:51;;;;;;;;;16.00;16.00;;;;;21.60;40.28;103070.44;2019384;27;3572553;-69
2023/12/18 21:21:04;;;;;;;;;23.67;23.67;;;;;21.59;40.60;103074.91;2038630;27;3584618;-68
2023/12/18 21:22:15;;;;;;;;;30.33;29.33;;;;;21.59;40.41;103074.91;2021987;27;3588796;-70
2023/12/18 21:23:27;;;;;;;;;30.00;28.67;;;;;21.60;40.59;103081.13;2039017;27;3578332;-69
2023/12/18 21:24:40;;;;;;;;;34.00;31.33;;;;;21.61;40.60;103074.00;2037927;28;3586710;-68
2023/12/18 21:25:52;;;;;;;;;32.00;31.33;;;;;21.60;40.43;103078.47;2021632;28;3599193;-68
2023/12/18 21:27:04;;;;;;;;;37.33;34.00;;;;;21.59;40.07;103074.91;2036764;28;3600231;-69
2023/12/18 21:28:15;;;;;;;;;38.33;35.00;;;;;21.59;40.05;103084.75;2032541;28;3579439;-70
2023/12/18 21:29:27;;;;;;;;;37.67;34.67;;;;;21.60;40.35;103086.50;2035604;28;3576707;-69
2023/12/18 21:30:40;;;;;;;;;33.60;32.00;;;;;21.61;40.09;103085.53;2038024;27;3583558;-70
2023/12/18 21:31:52;;;;;;;;;35.00;33.00;;;;;21.61;40.20;103090.88;2033610;27;3581481;-70
2023/12/18 21:33:03;;;;;;;;;33.00;30.00;;;;;21.60;40.29;103086.50;2014440;28;3580495;-70
2023/12/18 21:34:15;;;;;;;;;36.33;33.33;;;;;21.59;40.37;103079.38;2032157;28;3592445;-69
2023/12/18 21:35:27;;;;;;;;;37.00;34.00;;;;;21.60;40.19;103086.50;2033742;28;3588816;-69
2023/12/18 21:36:39;;;;;;;;;40.67;36.67;;;;;21.59;40.49;103076.72;2037269;27;3599182;-69
2023/12/18 21:37:51;;;;;;;;;35.60;33.20;;;;;21.59;40.40;103082.06;2042468;27;3590829;-69
2023/12/18 21:39:03;;;;;;;;;33.67;30.33;;;;;21.57;39.79;103074.13;2028068;27;3599208;-70
2023/12/18 21:40:15;;;;;;;;;42.67;38.00;;;;;21.58;39.86;103070.47;2020116;27;3595034;-70
2023/12/18 21:41:29;;;;;;;;;37.67;34.00;;;;;21.59;39.87;103066.88;2028334;27;3593989;-69
2023/12/18 21:42:41;;;;;;;;;38.00;34.00;;;;;21.58;39.80;103064.28;2021748;27;3599242;-69
2023/12/18 21:43:53;;;;;;;;;35.80;33.40;;;;;21.58;40.29;103065.13;2048900;27;3583544;-69
2023/12/18 21:45:07;;;;;;;;;37.67;34.00;;;;;21.59;40.35;103058.84;2039459;27;3588148;-80
2023/12/18 21:46:18;;;;;;;;;38.67;34.00;;;;;21.58;40.08;103054.44;2029239;27;3591253;-71
2023/12/18 21:47:30;;;;;;;;;42.67;36.33;;;;;21.58;40.14;103049.06;2042773;27;3594005;-71
2023/12/18 21:48:42;;;;;;;;;38.00;35.00;;;;;21.58;39.92;103049.06;2046669;27;3597187;-71
2023/12/18 21:49:55;;;;;;;;;33.40;31.20;;;;;21.58;39.87;103049.06;2050351;27;3584579;-72
2023/12/18 21:51:06;;;;;;;;;43.67;37.33;;;;;21.58;39.99;103049.06;2020845;27;3601311;-71
2023/12/18 21:52:18;;;;;;;;;44.67;38.67;;;;;21.58;39.69;103048.22;2047088;27;3593977;-71
2023/12/18 21:53:30;;;;;;;;;40.33;35.67;;;;;21.59;39.79;103049.97;2047055;27;3581497;-72
2023/12/18 21:54:43;;;;;;;;;36.71;33.71;;;;;21.57;40.18;103042.00;2043409;27;3605440;-71
2023/12/18 21:55:55;;;;;;;;;44.33;38.00;;;;;21.58;40.18;103045.56;2012997;27;3599193;-71
2023/12/18 21:57:10;;;;;;;;;35.33;32.67;;;;;21.58;40.14;103043.72;2041464;28;3587771;-71
2023/12/18 21:58:20;;;;;;;;;33.50;31.00;;;;;21.59;40.01;103041.94;2025093;28;2841907;-72
2023/12/18 21:59:32;;;;;;;;;30.67;29.67;;;;;21.58;40.17;103046.41;2041912;28;3581525;-72
2023/12/18 22:00:44;;;;;;;;;31.20;28.80;;;;;21.60;40.00;103041.00;2035381;28;3595015;-70
2023/12/18 22:01:56;;;;;;;;;26.40;25.80;;;;;21.59;40.17;103036.56;2038383;28;3590832;-71
2023/12/18 22:03:08;;;;;;;;;28.00;28.00;;;;;21.59;39.74;103032.09;2040779;28;3584602;-72
2023/12/18 22:04:20;;;;;;;;;21.67;21.67;;;;;21.59;39.45;103032.09;2037602;27;3586714;-72
2023/12/18 22:05:32;;;;;;;;;41.00;36.00;;;;;21.58;39.68;103035.69;2022235;27;3593052;-70
2023/12/18 22:06:44;;;;;;;;;35.33;32.33;;;;;21.59;39.67;103039.25;2029943;28;3593977;-71
2023/12/18 22:07:56;;;;;;;;;31.67;30.00;;;;;21.58;39.80;103038.38;2026078;28;3598196;-71
2023/12/18 22:09:08;;;;;;;;;30.67;29.33;;;;;21.57;39.75;103031.31;2023195;28;3591921;-71
2023/12/18 22:10:19;;;;;;;;;37.33;31.67;;;;;21.57;39.48;103030.44;2026927;28;3598155;-71
2023/12/18 22:11:32;;;;;;;;;28.86;27.14;;;;;21.56;39.31;103034.03;2038529;28;3595068;-71
2023/12/18 22:12:44;;;;;;;;;28.33;28.00;;;;;21.55;39.38;103038.53;2038426;28;3586738;-72
2023/12/18 22:13:56;;;;;;;;;24.00;24.00;;;;;21.55;39.65;103035.84;2031394;28;3598159;-72
2023/12/18 22:15:08;;;;;;;;;28.00;26.67;;;;;21.54;39.58;103036.78;2029362;28;3585683;-73
2023/12/18 22:16:20;;;;;;;;;23.00;22.80;;;;;21.54;40.08;103035.91;2024522;28;3590824;-71
2023/12/18 22:17:32;;;;;;;;;31.67;29.00;;;;;21.53;39.51;103035.03;2032578;27;3583632;-73
2023/12/18 22:18:44;;;;;;;;;28.33;27.33;;;;;21.52;39.86;103033.31;2038303;28;3583580;-72
2023/12/18 22:19:56;;;;;;;;;24.00;24.00;;;;;21.52;39.43;103029.75;2032030;28;3580456;-72
2023/12/18 22:21:08;;;;;;;;;25.20;25.20;;;;;21.50;39.32;103024.50;2041386;27;3588730;-72
2023/12/18 22:22:20;;;;;;;;;24.00;23.00;;;;;21.50;39.48;103034.31;2021818;28;3577323;-72
2023/12/18 22:23:32;;;;;;;;;22.67;21.00;;;;;21.48;39.64;103029.03;2032090;28;3576269;-73
2023/12/18 22:24:43;;;;;;;;;27.33;26.00;;;;;21.47;39.39;103024.63;2029408;28;3584618;-72
2023/12/18 22:25:55;;;;;;;;;24.67;24.67;;;;;21.47;39.85;103029.97;2032418;27;3579461;-72
2023/12/18 22:27:07;;;;;;;;;27.20;26.00;;;;;21.46;39.61;103028.22;2043167;27;3579903;-71
2023/12/18 22:28:19;;;;;;;;;25.40;25.20;;;;;21.44;39.61;103022.94;2046971;27;3573108;-72
2023/12/18 22:29:31;;;;;;;;;28.33;27.00;;;;;21.43;39.93;103021.22;2036745;28;3580432;-72
